createdAt,value
2018-02-09T07:20:09.794Z,612.00
2018-02-09T07:21:09.707Z,636.00
2018-02-09T07:23:02.494Z,684.00
2018-02-09T07:24:02.434Z,708.00
2018-02-09T07:25:55.271Z,760.00
2018-02-09T07:26:55.212Z,780.00
2018-02-09T07:28:48.035Z,828.00
2018-02-09T07:29:48.003Z,848.00
2018-02-09T07:31:40.840Z,892.00
2018-02-09T07:32:40.785Z,916.00
2018-02-09T07:34:33.599Z,952.00
2018-02-09T07:35:33.583Z,972.00
2018-02-09T07:37:26.403Z,1004.00
2018-02-09T07:38:26.352Z,1020.00
2018-02-09T07:40:19.162Z,1052.00
2018-02-09T07:41:19.132Z,1064.00
2018-02-09T07:43:12.011Z,1096.00
2018-02-09T07:44:11.915Z,1112.00
2018-02-09T07:46:04.923Z,1144.00
2018-02-09T07:47:04.696Z,1164.00
2018-02-09T07:48:04.663Z,1176.00
2018-02-09T07:49:04.637Z,1192.00
2018-02-09T07:50:04.606Z,1208.00
2018-02-09T07:51:04.573Z,1224.00
2018-02-09T07:52:04.544Z,1240.00
2018-02-09T07:53:04.518Z,1252.00
2018-02-09T07:54:04.489Z,1268.00
2018-02-09T07:55:04.451Z,1280.00
2018-02-09T07:56:04.426Z,1296.00
2018-02-09T07:57:04.399Z,1308.00
2018-02-09T07:58:04.370Z,1328.00
2018-02-09T07:59:04.336Z,1340.00
2018-02-09T08:00:04.306Z,1348.00
2018-02-09T08:01:04.282Z,1356.00
2018-02-09T08:02:04.248Z,1368.00
2018-02-09T08:03:04.234Z,1380.00
2018-02-09T08:04:04.190Z,1396.00
2018-02-09T08:05:04.163Z,1420.00
2018-02-09T08:06:04.133Z,1440.00
2018-02-09T08:07:04.105Z,1460.00
2018-02-09T08:08:04.070Z,1480.00
2018-02-09T08:09:04.047Z,1496.00
2018-02-09T08:10:04.016Z,1504.00
2018-02-09T08:11:03.982Z,1508.00
2018-02-09T08:12:03.953Z,1512.00
2018-02-09T08:13:03.926Z,1512.00
2018-02-09T08:14:03.900Z,1536.00
2018-02-09T08:15:03.866Z,1556.00
2018-02-09T08:16:03.840Z,1584.00
2018-02-09T08:17:03.806Z,1612.00
2018-02-09T08:18:03.781Z,1640.00
2018-02-09T08:19:03.748Z,1656.00
2018-02-09T08:20:03.722Z,1672.00
2018-02-09T08:21:03.701Z,1680.00
2018-02-09T08:22:03.663Z,1696.00
2018-02-09T08:23:03.630Z,1700.00
2018-02-09T08:24:03.602Z,1696.00
2018-02-09T08:25:03.575Z,1700.00
2018-02-09T08:26:03.542Z,1708.00
2018-02-09T08:27:03.516Z,1708.00
2018-02-09T08:28:03.486Z,1716.00
2018-02-09T08:29:03.460Z,1728.00
2018-02-09T08:30:03.431Z,1756.00
2018-02-09T08:31:03.401Z,1784.00
2018-02-09T08:32:03.366Z,1796.00
2018-02-09T08:33:03.342Z,1820.00
2018-02-09T08:34:03.311Z,1856.00
2018-02-09T08:35:03.277Z,1888.00
2018-02-09T08:36:03.249Z,1920.00
2018-02-09T08:37:03.228Z,1928.00
2018-02-09T08:38:03.195Z,1936.00
2018-02-09T08:39:03.166Z,1964.00
2018-02-09T08:40:03.141Z,1976.00
2018-02-09T08:41:03.106Z,1988.00
2018-02-09T08:42:03.077Z,1996.00
2018-02-09T08:43:03.042Z,2016.00
2018-02-09T08:44:03.028Z,2028.00
2018-02-09T08:45:02.987Z,2044.00
2018-02-09T08:46:02.961Z,2064.00
2018-02-09T08:47:02.930Z,2076.00
2018-02-09T08:48:02.901Z,2096.00
2018-02-09T08:49:02.873Z,2112.00
2018-02-09T08:50:02.841Z,2128.00
2018-02-09T08:51:02.822Z,2152.00
2018-02-09T08:52:02.786Z,2156.00
2018-02-09T08:53:02.753Z,2176.00
2018-02-09T08:54:02.726Z,2196.00
2018-02-09T08:55:02.697Z,2216.00
2018-02-09T08:56:02.667Z,2224.00
2018-02-09T08:57:02.643Z,2248.00
2018-02-09T08:58:02.612Z,2260.00
2018-02-09T08:59:02.579Z,2284.00
2018-02-09T09:00:02.549Z,2304.00
2018-02-09T09:01:02.526Z,2328.00
2018-02-09T09:02:02.496Z,2360.00
2018-02-09T09:03:02.463Z,2368.00
2018-02-09T09:04:02.436Z,2392.00
2018-02-09T09:05:02.411Z,2424.00
2018-02-09T09:06:02.379Z,2456.00
2018-02-09T09:07:02.345Z,2476.00
2018-02-09T09:08:02.317Z,2484.00
2018-02-09T09:09:02.290Z,2516.00
2018-02-09T09:10:02.261Z,2528.00
2018-02-09T09:11:02.230Z,2548.00
2018-02-09T09:12:02.205Z,2560.00
2018-02-09T09:13:02.176Z,2548.00
2018-02-09T09:14:02.148Z,2568.00
2018-02-09T09:15:02.118Z,2584.00
2018-02-09T09:16:02.087Z,2600.00
2018-02-09T09:17:02.064Z,2604.00
2018-02-09T09:18:02.031Z,2628.00
2018-02-09T09:19:01.996Z,2616.00
2018-02-09T09:20:02.012Z,2616.00
2018-02-09T09:21:01.937Z,2636.00
2018-02-09T09:22:01.910Z,2640.00
2018-02-09T09:23:01.887Z,2636.00
2018-02-09T09:24:01.857Z,2632.00
2018-02-09T09:25:01.825Z,2648.00
2018-02-09T09:26:01.797Z,2660.00
2018-02-09T09:27:01.770Z,2676.00
2018-02-09T09:28:01.742Z,2676.00
2018-02-09T09:29:01.720Z,2668.00
2018-02-09T09:30:01.680Z,2660.00
2018-02-09T09:31:01.652Z,2668.00
2018-02-09T09:32:01.624Z,2676.00
2018-02-09T09:33:01.613Z,2672.00
2018-02-09T09:34:01.565Z,2644.00
2018-02-09T09:35:01.541Z,2640.00
2018-02-09T09:36:01.514Z,2656.00
2018-02-09T09:37:01.480Z,2652.00
2018-02-09T09:38:01.458Z,2620.00
2018-02-09T09:39:01.423Z,2588.00
2018-02-09T09:40:01.398Z,2548.00
2018-02-09T09:41:01.365Z,2548.00
2018-02-09T09:42:01.344Z,2556.00
2018-02-09T09:43:01.307Z,2588.00
2018-02-09T09:44:01.283Z,2592.00
2018-02-09T09:45:01.250Z,2552.00
2018-02-09T09:46:01.221Z,2572.00
2018-02-09T09:47:01.193Z,2564.00
2018-02-09T09:48:01.168Z,2572.00
2018-02-09T09:49:01.139Z,2544.00
2018-02-09T09:50:01.106Z,2572.00
2018-02-09T09:51:01.080Z,2572.00
2018-02-09T09:52:01.049Z,2552.00
2018-02-09T09:53:01.024Z,2500.00
2018-02-09T09:54:00.992Z,2504.00
2018-02-09T09:55:00.967Z,2548.00
2018-02-09T09:56:00.938Z,2512.00
2018-02-09T09:57:00.908Z,2476.00
2018-02-09T09:58:00.876Z,2528.00
2018-02-09T09:59:00.855Z,2568.00
2018-02-09T10:00:00.821Z,2592.00
2018-02-09T10:01:00.794Z,2596.00
2018-02-09T10:02:00.762Z,2604.00
2018-02-09T10:03:00.733Z,2636.00
2018-02-09T10:04:00.705Z,2640.00
2018-02-09T10:05:00.674Z,2656.00
2018-02-09T10:06:00.646Z,2684.00
2018-02-09T10:07:00.621Z,2716.00
2018-02-09T10:08:00.589Z,2680.00
2018-02-09T10:09:00.565Z,2712.00
2018-02-09T10:10:00.532Z,2728.00
2018-02-09T10:11:00.512Z,2712.00
2018-02-09T10:12:00.476Z,2744.00
2018-02-09T10:13:00.451Z,2760.00
2018-02-09T10:14:00.430Z,2732.00
2018-02-09T10:15:00.391Z,2724.00
2018-02-09T10:16:00.364Z,2732.00
2018-02-09T10:17:00.336Z,2712.00
2018-02-09T10:18:00.302Z,2752.00
2018-02-09T10:19:00.278Z,2732.00
2018-02-09T10:20:00.246Z,2728.00
2018-02-09T10:21:00.220Z,2748.00
2018-02-09T10:22:00.190Z,2764.00
2018-02-09T10:23:00.161Z,2804.00
2018-02-09T10:24:00.131Z,2836.00
2018-02-09T10:25:00.107Z,2836.00
2018-02-09T10:26:00.077Z,2844.00
2018-02-09T10:27:00.041Z,2860.00
2018-02-09T10:28:00.021Z,2864.00
2018-02-09T10:28:59.990Z,2856.00
2018-02-09T10:29:59.962Z,2868.00
2018-02-09T10:30:59.929Z,2876.00
2018-02-09T10:31:59.905Z,2932.00
2018-02-09T10:32:59.879Z,2964.00
2018-02-09T10:33:59.848Z,2944.00
2018-02-09T10:34:59.814Z,2920.00
2018-02-09T10:35:59.786Z,2924.00
2018-02-09T10:36:59.762Z,2916.00
2018-02-09T10:37:59.728Z,2944.00
2018-02-09T10:38:59.701Z,2976.00
2018-02-09T10:39:59.671Z,3004.00
2018-02-09T10:40:59.644Z,3008.00
2018-02-09T10:41:59.618Z,2996.00
2018-02-09T10:42:59.586Z,3016.00
2018-02-09T10:43:59.558Z,3020.00
2018-02-09T10:44:59.537Z,3048.00
2018-02-09T10:45:59.504Z,3048.00
2018-02-09T10:46:59.472Z,3052.00
2018-02-09T10:47:59.448Z,3044.00
2018-02-09T10:48:59.414Z,3080.00
2018-02-09T10:49:59.386Z,3140.00
2018-02-09T10:50:59.360Z,3172.00
2018-02-09T10:51:59.332Z,3144.00
2018-02-09T10:52:59.303Z,3180.00
2018-02-09T10:53:59.270Z,3228.00
2018-02-09T10:54:59.246Z,3264.00
2018-02-09T10:55:59.224Z,3320.00
2018-02-09T10:56:59.189Z,3296.00
2018-02-09T10:57:59.163Z,3240.00
2018-02-09T10:58:59.127Z,3260.00
2018-02-09T10:59:59.105Z,3368.00
2018-02-09T11:00:59.070Z,3472.00
2018-02-09T11:01:59.046Z,3504.00
2018-02-09T11:02:59.016Z,3460.00
2018-02-09T11:03:58.985Z,3484.00
2018-02-09T11:04:58.962Z,3552.00
2018-02-09T11:05:58.928Z,3484.00
2018-02-09T11:06:58.901Z,3440.00
2018-02-09T11:07:58.877Z,3500.00
2018-02-09T11:08:58.846Z,3464.00
2018-02-09T11:09:58.816Z,3484.00
2018-02-09T11:10:58.792Z,3576.00
2018-02-09T11:11:58.758Z,3644.00
2018-02-09T11:12:58.748Z,3640.00
2018-02-09T11:13:58.706Z,3536.00
2018-02-09T11:14:58.672Z,3560.00
2018-02-09T11:15:58.642Z,3644.00
2018-02-09T11:16:58.622Z,3932.00
2018-02-09T11:17:58.593Z,3872.00
2018-02-09T11:18:58.561Z,3800.00
2018-02-09T11:19:58.539Z,3712.00
2018-02-09T11:20:58.505Z,3604.00
2018-02-09T11:21:58.478Z,3584.00
2018-02-09T11:22:58.449Z,3620.00
2018-02-09T11:23:58.423Z,3712.00
2018-02-09T11:24:58.392Z,3712.00
2018-02-09T11:25:58.372Z,3632.00
2018-02-09T11:26:58.335Z,3568.00
2018-02-09T11:27:58.309Z,3628.00
2018-02-09T11:28:58.280Z,3660.00
2018-02-09T11:29:58.250Z,3724.00
2018-02-09T11:30:58.274Z,3720.00
2018-02-09T11:31:58.200Z,3756.00
2018-02-09T11:32:58.172Z,3804.00
2018-02-09T11:33:58.138Z,3848.00
2018-02-09T11:34:58.113Z,3804.00
2018-02-09T11:35:58.081Z,3776.00
2018-02-09T11:36:58.111Z,3772.00
2018-02-09T11:37:58.062Z,3760.00
2018-02-09T11:38:58.002Z,3836.00
2018-02-09T11:39:57.969Z,3816.00
2018-02-09T11:40:57.946Z,3840.00
2018-02-09T11:41:58.002Z,3844.00
2018-02-09T11:42:57.899Z,3964.00
2018-02-09T11:43:57.856Z,4048.00
2018-02-09T11:44:57.832Z,4036.00
2018-02-09T11:45:57.800Z,4052.00
2018-02-09T11:46:57.775Z,4120.00
2018-02-09T11:47:57.745Z,4212.00
2018-02-09T11:48:57.718Z,4236.00
2018-02-09T11:49:57.689Z,4244.00
2018-02-09T11:50:57.663Z,4256.00
2018-02-09T11:51:57.630Z,4252.00
2018-02-09T11:52:57.611Z,4272.00
2018-02-09T11:53:57.580Z,4224.00
2018-02-09T11:54:57.547Z,4316.00
2018-02-09T11:55:57.522Z,4284.00
2018-02-09T11:56:57.496Z,4264.00
2018-02-09T11:57:57.467Z,4328.00
2018-02-09T11:58:57.434Z,4428.00
2018-02-09T11:59:57.410Z,4308.00
2018-02-09T12:00:57.395Z,4200.00
2018-02-09T12:01:57.360Z,4252.00
2018-02-09T12:02:57.324Z,4324.00
2018-02-09T12:03:57.296Z,4308.00
2018-02-09T12:04:57.269Z,4348.00
2018-02-09T12:05:57.245Z,4348.00
2018-02-09T12:06:57.251Z,4296.00
2018-02-09T12:07:57.326Z,4112.00
2018-02-09T12:08:57.158Z,4332.00
2018-02-09T12:09:57.122Z,4540.00
2018-02-09T12:10:57.103Z,4772.00
2018-02-09T12:11:57.070Z,5192.00
2018-02-09T12:12:57.047Z,4864.00
2018-02-09T12:13:57.014Z,4648.00
2018-02-09T12:14:57.004Z,4472.00
2018-02-09T12:15:56.964Z,4480.00
2018-02-09T12:16:56.940Z,4540.00
2018-02-09T12:17:56.903Z,4592.00
2018-02-09T12:18:56.880Z,4484.00
2018-02-09T12:19:56.850Z,4264.00
2018-02-09T12:20:56.820Z,4524.00
2018-02-09T12:21:56.793Z,4996.00
2018-02-09T12:22:56.767Z,4980.00
2018-02-09T12:23:56.740Z,4868.00
2018-02-09T12:24:56.707Z,4824.00
2018-02-09T12:25:56.682Z,4776.00
2018-02-09T12:26:56.651Z,4748.00
2018-02-09T12:27:56.628Z,4856.00
2018-02-09T12:28:56.595Z,4960.00
2018-02-09T12:29:56.572Z,5032.00
2018-02-09T12:30:56.539Z,4912.00
2018-02-09T12:31:56.510Z,4896.00
2018-02-09T12:32:56.502Z,4900.00
2018-02-09T12:33:56.468Z,4804.00
2018-02-09T12:34:56.430Z,4816.00
2018-02-09T12:35:56.400Z,4868.00
2018-02-09T12:36:56.382Z,4708.00
2018-02-09T12:37:56.346Z,4660.00
2018-02-09T12:38:56.319Z,4844.00
2018-02-09T12:39:56.303Z,4920.00
2018-02-09T12:40:56.265Z,4912.00
2018-02-09T12:41:56.234Z,4988.00
2018-02-09T12:42:56.202Z,5000.00
2018-02-09T12:43:56.177Z,4932.00
2018-02-09T12:44:56.291Z,4824.00
2018-02-09T12:45:56.125Z,4808.00
2018-02-09T12:46:56.092Z,4840.00
2018-02-09T12:47:56.066Z,4824.00
2018-02-09T12:48:56.043Z,4820.00
2018-02-09T12:49:56.030Z,4800.00
2018-02-09T12:50:55.984Z,5004.00
2018-02-09T12:51:56.010Z,4980.00
2018-02-09T12:52:55.931Z,5064.00
2018-02-09T12:53:55.902Z,5012.00
2018-02-09T12:54:55.873Z,4984.00
2018-02-09T12:55:55.841Z,4948.00
2018-02-09T12:56:55.822Z,5080.00
2018-02-09T12:57:55.791Z,5016.00
2018-02-09T12:58:55.759Z,4896.00
2018-02-09T12:59:55.762Z,4852.00
2018-02-09T13:00:55.703Z,4840.00
2018-02-09T13:01:55.708Z,4900.00
2018-02-09T13:02:55.648Z,4872.00
2018-02-09T13:03:55.709Z,4848.00
2018-02-09T13:04:55.592Z,4956.00
2018-02-09T13:05:55.570Z,4916.00
2018-02-09T13:06:55.540Z,4900.00
2018-02-09T13:07:55.546Z,4976.00
2018-02-09T13:08:55.486Z,5036.00
2018-02-09T13:09:55.456Z,5004.00
2018-02-09T13:10:55.433Z,4960.00
2018-02-09T13:11:55.406Z,5044.00
2018-02-09T13:12:55.378Z,5180.00
2018-02-09T13:13:55.400Z,5204.00
2018-02-09T13:14:55.315Z,5204.00
2018-02-09T13:15:55.287Z,5268.00
2018-02-09T13:16:55.263Z,5372.00
2018-02-09T13:17:55.265Z,5412.00
2018-02-09T13:18:55.231Z,5296.00
2018-02-09T13:19:55.177Z,5340.00
2018-02-09T13:20:55.196Z,5432.00
2018-02-09T13:21:55.120Z,5368.00
2018-02-09T13:22:55.096Z,5336.00
2018-02-09T13:23:55.070Z,5368.00
2018-02-09T13:24:55.039Z,5308.00
2018-02-09T13:25:55.012Z,5260.00
2018-02-09T13:26:55.051Z,5312.00
2018-02-09T13:27:54.968Z,5384.00
2018-02-09T13:28:54.930Z,5420.00
2018-02-09T13:29:54.900Z,5416.00
2018-02-09T13:30:54.874Z,5456.00
2018-02-09T13:31:54.845Z,5496.00
2018-02-09T13:32:54.819Z,5508.00
2018-02-09T13:33:54.796Z,5524.00
2018-02-09T13:34:54.772Z,5540.00
2018-02-09T13:35:54.738Z,5580.00
2018-02-09T13:36:54.796Z,5496.00
2018-02-09T13:37:54.680Z,5376.00
2018-02-09T13:38:54.649Z,5268.00
2018-02-09T13:39:54.622Z,5284.00
2018-02-09T13:40:54.601Z,5324.00
2018-02-09T13:41:54.567Z,5288.00
2018-02-09T13:42:54.541Z,5320.00
2018-02-09T13:43:54.514Z,5300.00
2018-02-09T13:44:54.484Z,5252.00
2018-02-09T13:45:54.455Z,5060.00
2018-02-09T13:46:54.432Z,4956.00
2018-02-09T13:47:54.408Z,4940.00
2018-02-09T13:48:54.375Z,4864.00
2018-02-09T13:49:54.344Z,4808.00
2018-02-09T13:50:54.332Z,4768.00
2018-02-09T13:51:54.292Z,4752.00
2018-02-09T13:52:54.266Z,4748.00
2018-02-09T13:53:54.236Z,4812.00
2018-02-09T13:54:54.207Z,4884.00
2018-02-09T13:55:54.184Z,4924.00
2018-02-09T13:56:54.152Z,4980.00
2018-02-09T13:57:54.196Z,5036.00
2018-02-09T13:58:54.100Z,5048.00
2018-02-09T13:59:54.073Z,5136.00
2018-02-09T14:00:54.086Z,5144.00
2018-02-09T14:01:54.013Z,5160.00
2018-02-09T14:02:53.989Z,5144.00
2018-02-09T14:03:53.963Z,5144.00
2018-02-09T14:04:53.930Z,5164.00
2018-02-09T14:05:53.929Z,5208.00
2018-02-09T14:06:53.877Z,5172.00
2018-02-09T14:07:53.850Z,5240.00
2018-02-09T14:08:53.818Z,5276.00
2018-02-09T14:09:53.789Z,5344.00
2018-02-09T14:10:53.764Z,5284.00
2018-02-09T14:11:53.750Z,5208.00
2018-02-09T14:12:53.712Z,5128.00
2018-02-09T14:13:53.680Z,5144.00
2018-02-09T14:14:53.657Z,5228.00
2018-02-09T14:15:53.634Z,5220.00
2018-02-09T14:16:53.598Z,5232.00
2018-02-09T14:17:53.573Z,5268.00
2018-02-09T14:18:53.541Z,5196.00
2018-02-09T14:19:53.519Z,5224.00
2018-02-09T14:20:53.492Z,5272.00
2018-02-09T14:21:53.465Z,5308.00
2018-02-09T14:22:53.430Z,5340.00
2018-02-09T14:23:53.406Z,5276.00
2018-02-09T14:24:53.435Z,5292.00
2018-02-09T14:25:53.348Z,5272.00
2018-02-09T14:26:53.327Z,5156.00
2018-02-09T14:27:53.297Z,5172.00
2018-02-09T14:28:53.273Z,5256.00
2018-02-09T14:29:53.280Z,5248.00
2018-02-09T14:30:53.212Z,5232.00
2018-02-09T14:31:53.186Z,5256.00
2018-02-09T14:32:53.192Z,5304.00
2018-02-09T14:33:53.127Z,5340.00
2018-02-09T14:34:53.101Z,5344.00
2018-02-09T14:35:53.076Z,5368.00
2018-02-09T14:36:53.048Z,5280.00
2018-02-09T14:37:53.063Z,5196.00
2018-02-09T14:38:52.994Z,5232.00
2018-02-09T14:39:52.961Z,5256.00
2018-02-09T14:40:52.939Z,5272.00
2018-02-09T14:41:52.910Z,5252.00
2018-02-09T14:42:52.880Z,5240.00
2018-02-09T14:43:52.850Z,5156.00
2018-02-09T14:44:52.828Z,5132.00
2018-02-09T14:45:52.797Z,5140.00
2018-02-09T14:46:52.770Z,5076.00
2018-02-09T14:47:52.742Z,4976.00
2018-02-09T14:48:52.717Z,4948.00
2018-02-09T14:49:52.689Z,4924.00
2018-02-09T14:50:52.659Z,4948.00
2018-02-09T14:51:52.632Z,4960.00
2018-02-09T14:52:52.609Z,4956.00
2018-02-09T14:53:52.580Z,4948.00
2018-02-09T14:54:52.550Z,4912.00
2018-02-09T14:55:52.525Z,4880.00
2018-02-09T14:56:52.494Z,4872.00
2018-02-09T14:57:52.469Z,4836.00
2018-02-09T14:58:52.438Z,4804.00
2018-02-09T14:59:52.413Z,4776.00
2018-02-09T15:00:52.384Z,4712.00
2018-02-09T15:01:52.361Z,4660.00
2018-02-09T15:02:52.333Z,4596.00
2018-02-09T15:03:52.305Z,4528.00
2018-02-09T15:04:52.274Z,4488.00
2018-02-09T15:05:52.250Z,4424.00
2018-02-09T15:06:52.218Z,4404.00
2018-02-09T15:07:52.196Z,4232.00
2018-02-09T15:08:52.166Z,3944.00
2018-02-09T15:09:52.138Z,3716.00
2018-02-09T15:10:52.109Z,3636.00
2018-02-09T15:11:52.084Z,3716.00
2018-02-09T15:12:52.059Z,3856.00
2018-02-09T15:13:52.035Z,4020.00
2018-02-09T15:14:52.003Z,4056.00
2018-02-09T15:15:52.159Z,4016.00
2018-02-09T15:16:51.972Z,4028.00
2018-02-09T15:17:52.005Z,3980.00
2018-02-09T15:18:51.895Z,3876.00
2018-02-09T15:19:51.868Z,3824.00
2018-02-09T15:20:51.840Z,3824.00
2018-02-09T15:21:51.806Z,3732.00
2018-02-09T15:22:51.789Z,3668.00
2018-02-09T15:23:51.754Z,3676.00
2018-02-09T15:24:51.730Z,3596.00
2018-02-09T15:25:51.696Z,3588.00
2018-02-09T15:26:51.675Z,3444.00
2018-02-09T15:27:51.641Z,3284.00
2018-02-09T15:28:51.617Z,3220.00
2018-02-09T15:29:51.588Z,3216.00
2018-02-09T15:30:51.565Z,3052.00
2018-02-09T15:31:51.538Z,2772.00
2018-02-09T15:32:51.506Z,2584.00
2018-02-09T15:33:51.491Z,2472.00
2018-02-09T15:34:51.456Z,2368.00
2018-02-09T15:35:51.424Z,2500.00
2018-02-09T15:36:51.403Z,2640.00
2018-02-09T15:37:51.372Z,2548.00
2018-02-09T15:38:51.344Z,2368.00
2018-02-09T15:39:51.317Z,2184.00
2018-02-09T15:40:51.292Z,2012.00
2018-02-09T15:41:51.255Z,1880.00
2018-02-09T15:42:51.232Z,1784.00
2018-02-09T15:43:51.206Z,1736.00
2018-02-09T15:44:51.173Z,1716.00
2018-02-09T15:45:51.150Z,1704.00
2018-02-09T15:46:51.121Z,1668.00
2018-02-09T15:47:51.093Z,1644.00
2018-02-09T15:48:51.068Z,1676.00
2018-02-09T15:49:51.034Z,1688.00
2018-02-09T15:50:51.012Z,1668.00
2018-02-09T15:51:50.982Z,1624.00
2018-02-09T15:52:50.960Z,1568.00
2018-02-09T15:53:50.927Z,1492.00
2018-02-09T15:54:50.900Z,1416.00
2018-02-09T15:55:50.875Z,1352.00
2018-02-09T15:56:50.846Z,1280.00
2018-02-09T15:57:50.819Z,1216.00
2018-02-09T15:58:50.787Z,1164.00
2018-02-09T15:59:50.764Z,1120.00
2018-02-09T16:00:50.730Z,1084.00
2018-02-09T16:01:50.703Z,1048.00
2018-02-09T16:02:50.680Z,1024.00
2018-02-09T16:03:50.647Z,1000.00
2018-02-09T16:04:50.631Z,972.00
2018-02-09T16:05:50.592Z,948.00
2018-02-09T16:06:50.569Z,920.00
2018-02-09T16:07:50.541Z,892.00
2018-02-09T16:08:50.513Z,856.00
2018-02-09T16:09:50.482Z,824.00
2018-02-09T16:10:50.457Z,788.00
2018-02-09T16:11:50.429Z,748.00
2018-02-09T16:12:50.398Z,712.00
2018-02-09T16:13:50.372Z,680.00
2018-02-09T16:14:50.341Z,648.00
2018-02-09T16:15:50.313Z,616.00
2018-02-09T16:16:50.291Z,588.00
2018-02-09T16:17:50.258Z,556.00
2018-02-09T16:18:50.229Z,528.00
2018-02-09T16:19:50.206Z,500.00
2018-02-09T16:20:50.189Z,468.00
2018-02-09T16:21:50.149Z,440.00
2018-02-09T16:22:50.118Z,408.00
2018-02-09T16:23:50.088Z,384.00
2018-02-09T16:24:50.062Z,356.00
2018-02-09T16:25:50.033Z,332.00
2018-02-09T16:26:50.010Z,308.00
2018-02-09T16:27:49.977Z,288.00
2018-02-09T16:28:49.953Z,264.00
2018-02-09T16:29:49.927Z,244.00
2018-02-09T16:30:49.908Z,228.00
2018-02-09T16:31:49.871Z,216.00
2018-02-09T16:32:49.838Z,200.00
2018-02-09T16:33:49.806Z,184.00
2018-02-09T16:34:49.789Z,172.00
2018-02-09T16:35:49.756Z,160.00
2018-02-09T16:36:49.725Z,148.00
2018-02-09T16:37:49.708Z,136.00
2018-02-09T16:38:49.669Z,124.00
2018-02-09T16:39:49.645Z,112.00
2018-02-09T16:40:49.660Z,104.00
2018-02-09T16:41:49.582Z,96.00
2018-02-09T16:42:49.558Z,84.00
2018-02-09T16:43:49.529Z,76.00
2018-02-09T16:44:49.493Z,68.00
2018-02-09T16:45:49.474Z,64.00
2018-02-09T16:46:49.441Z,56.00
2018-02-09T16:47:49.411Z,48.00
2018-02-09T16:48:49.388Z,40.00
2018-02-09T16:49:49.357Z,36.00
2018-02-09T16:50:49.327Z,32.00
2018-02-09T16:51:49.297Z,32.00
2018-02-09T16:52:49.274Z,24.00
2018-02-09T16:53:49.246Z,20.00
2018-02-09T16:54:49.211Z,16.00
2018-02-09T16:55:49.184Z,16.00
2018-02-09T16:56:49.155Z,12.00
2018-02-09T16:57:49.133Z,8.00
2018-02-09T16:58:49.102Z,12.00
2018-02-09T16:59:49.070Z,8.00
2018-02-09T17:00:49.047Z,8.00
2018-02-09T17:01:49.015Z,4.00
2018-02-09T17:02:48.987Z,4.00
2018-02-09T17:03:48.957Z,4.00
2018-02-09T17:04:48.931Z,4.00
2018-02-09T17:05:48.899Z,4.00
2018-02-09T17:06:48.872Z,4.00
2018-02-09T17:07:48.842Z,4.00
2018-02-09T17:08:48.817Z,0.00
2018-02-09T17:09:48.788Z,4.00
2018-02-09T17:10:48.761Z,0.00
2018-02-09T17:11:48.727Z,0.00
2018-02-09T17:12:48.703Z,0.00
2018-02-09T17:13:48.667Z,0.00
2018-02-09T17:14:48.645Z,0.00
2018-02-09T17:15:48.608Z,0.00
2018-02-09T17:16:48.596Z,0.00
2018-02-09T17:17:48.556Z,0.00
2018-02-09T17:18:48.528Z,0.00
2018-02-09T17:19:48.500Z,0.00
2018-02-09T17:20:48.469Z,0.00
2018-02-09T17:21:48.444Z,0.00
2018-02-09T17:22:48.409Z,0.00
2018-02-09T17:23:48.387Z,0.00
2018-02-09T17:24:48.359Z,0.00
2018-02-09T17:25:48.328Z,0.00
2018-02-09T17:26:48.296Z,0.00
2018-02-09T17:27:48.271Z,0.00
2018-02-09T17:28:48.242Z,0.00
2018-02-09T17:29:48.217Z,0.00
2018-02-09T17:30:48.181Z,0.00
2018-02-09T17:31:48.156Z,0.00
2018-02-09T17:32:48.123Z,0.00
2018-02-09T17:33:48.098Z,0.00
2018-02-09T17:34:48.070Z,0.00
2018-02-09T17:35:48.073Z,0.00
2018-02-09T17:36:48.012Z,0.00
2018-02-09T17:37:47.985Z,0.00
2018-02-09T17:38:47.952Z,0.00
2018-02-09T17:39:47.925Z,0.00
2018-02-09T17:40:47.911Z,0.00
2018-02-09T17:41:47.868Z,0.00
2018-02-09T17:42:47.834Z,0.00
2018-02-09T17:43:47.811Z,0.00
2018-02-09T17:44:47.780Z,0.00
2018-02-09T17:45:47.752Z,0.00
2018-02-09T17:46:47.725Z,0.00
2018-02-09T17:47:47.696Z,0.00
2018-02-09T17:48:47.664Z,0.00
2018-02-09T17:49:47.639Z,0.00
2018-02-09T17:50:47.605Z,0.00
2018-02-09T17:51:47.580Z,0.00
2018-02-09T17:52:47.556Z,0.00
2018-02-09T17:53:47.520Z,0.00
2018-02-09T17:54:47.494Z,0.00
2018-02-09T17:55:47.465Z,0.00
2018-02-09T17:56:47.437Z,0.00
2018-02-09T17:57:47.404Z,0.00
2018-02-09T17:58:47.377Z,0.00
2018-02-09T17:59:47.353Z,0.00
2018-02-09T18:00:47.327Z,0.00
2018-02-09T18:01:47.288Z,0.00
2018-02-09T18:02:47.265Z,0.00
2018-02-09T18:03:47.232Z,0.00
2018-02-09T18:04:47.207Z,0.00
2018-02-09T18:05:47.175Z,0.00
2018-02-09T18:06:47.150Z,0.00
2018-02-09T18:07:47.121Z,0.00
2018-02-09T18:08:47.096Z,0.00
2018-02-09T18:09:47.059Z,0.00
2018-02-09T18:10:47.036Z,0.00
2018-02-09T18:11:47.034Z,0.00
2018-02-09T18:12:46.993Z,0.00
2018-02-09T18:13:46.943Z,0.00
2018-02-09T18:14:46.918Z,0.00
2018-02-09T18:15:46.892Z,0.00
2018-02-09T18:16:46.863Z,0.00
2018-02-09T18:17:46.838Z,0.00
2018-02-09T18:18:46.805Z,0.00
2018-02-09T18:19:46.776Z,0.00
2018-02-09T18:20:46.747Z,0.00
2018-02-09T18:21:46.721Z,0.00
2018-02-09T18:22:46.691Z,0.00
2018-02-09T18:23:46.663Z,0.00
2018-02-09T18:24:46.634Z,0.00
2018-02-09T18:25:46.608Z,0.00
2018-02-09T18:26:46.573Z,0.00
2018-02-09T18:27:46.545Z,0.00
2018-02-09T18:28:46.520Z,0.00
2018-02-09T18:29:46.495Z,0.00
2018-02-09T18:30:46.461Z,0.00
2018-02-09T18:31:46.431Z,0.00
2018-02-09T18:32:46.405Z,0.00
2018-02-09T18:33:46.394Z,0.00
2018-02-09T18:34:46.358Z,0.00
2018-02-09T18:35:46.327Z,0.00
2018-02-09T18:36:46.312Z,0.00
2018-02-09T18:37:46.280Z,0.00
2018-02-09T18:38:46.308Z,0.00
2018-02-09T18:39:46.217Z,0.00
2018-02-09T18:40:46.196Z,0.00
2018-02-09T18:41:46.168Z,0.00
2018-02-09T18:42:46.137Z,0.00
2018-02-09T18:43:46.108Z,0.00
2018-02-09T18:44:46.080Z,0.00
2018-02-09T18:45:46.052Z,0.00
2018-02-09T18:46:46.016Z,0.00
2018-02-09T18:47:45.996Z,0.00
2018-02-09T18:48:45.969Z,0.00
2018-02-09T18:49:45.936Z,0.00
2018-02-09T18:50:45.914Z,0.00
2018-02-09T18:51:45.878Z,0.00
2018-02-09T18:52:45.848Z,0.00
2018-02-09T18:53:45.818Z,0.00
2018-02-09T18:54:45.792Z,0.00
2018-02-09T18:55:45.763Z,0.00
2018-02-09T18:56:45.738Z,0.00
2018-02-09T18:57:45.702Z,0.00
2018-02-09T18:58:45.685Z,0.00
2018-02-09T18:59:45.654Z,0.00
2018-02-09T19:00:45.625Z,0.00
2018-02-09T19:01:45.593Z,0.00
2018-02-09T19:02:45.568Z,0.00
2018-02-09T19:03:45.541Z,0.00
2018-02-09T19:04:45.507Z,0.00
2018-02-09T19:05:45.484Z,0.00
2018-02-09T19:06:45.452Z,0.00
2018-02-09T19:07:45.425Z,0.00
2018-02-09T19:08:45.396Z,0.00
2018-02-09T19:09:45.372Z,0.00
2018-02-09T19:10:45.339Z,0.00
2018-02-09T19:11:45.317Z,0.00
2018-02-09T19:12:45.290Z,0.00
2018-02-09T19:13:45.248Z,0.00
2018-02-09T19:14:45.238Z,0.00
2018-02-09T19:15:45.262Z,0.00
2018-02-09T19:16:45.228Z,0.00
2018-02-09T19:17:45.131Z,0.00
2018-02-09T19:18:45.118Z,0.00
2018-02-09T19:19:45.080Z,0.00
2018-02-09T19:20:45.058Z,0.00
2018-02-09T19:21:45.051Z,0.00
2018-02-09T19:22:45.062Z,0.00
2018-02-09T19:23:45.124Z,0.00
2018-02-09T19:24:45.010Z,0.00
2018-02-09T19:25:44.985Z,0.00
2018-02-09T19:26:44.915Z,0.00
2018-02-09T19:27:44.921Z,0.00
2018-02-09T19:28:44.894Z,0.00
2018-02-09T19:29:44.873Z,0.00
2018-02-09T19:30:44.835Z,0.00
2018-02-09T19:31:44.787Z,0.00
2018-02-09T19:32:44.779Z,0.00
2018-02-09T19:33:44.747Z,0.00
2018-02-09T19:34:44.994Z,0.00
2018-02-09T19:35:44.701Z,0.00
2018-02-09T19:36:44.600Z,0.00
2018-02-09T19:37:44.634Z,0.00
2018-02-09T19:38:44.611Z,0.00
2018-02-09T19:39:44.585Z,0.00
2018-02-09T19:40:44.548Z,0.00
2018-02-09T19:41:44.523Z,0.00
2018-02-09T19:42:44.502Z,0.00
2018-02-09T19:43:44.425Z,0.00
2018-02-09T19:44:44.441Z,0.00
2018-02-09T19:45:44.386Z,0.00
2018-02-09T19:46:44.385Z,0.00
2018-02-09T19:47:44.355Z,0.00
2018-02-09T19:48:44.307Z,0.00
2018-02-09T19:49:44.292Z,0.00
2018-02-09T19:50:44.274Z,0.00
2018-02-09T19:51:44.228Z,0.00